createdAt,value
2019-01-05T00:04:31.640Z,98590.66
2019-01-05T00:11:42.307Z,98574.34
2019-01-05T00:16:59.724Z,98568.30
2019-01-05T00:22:14.127Z,98566.61
2019-01-05T00:27:24.612Z,98564.44
2019-01-05T00:32:37.209Z,98561.40
2019-01-05T00:37:45.641Z,98552.41
2019-01-05T00:42:54.103Z,98547.63
2019-01-05T00:48:03.691Z,98542.03
2019-01-05T00:53:12.308Z,98544.20
2019-01-05T01:00:24.703Z,98544.20
2019-01-05T01:05:32.128Z,98538.61
2019-01-05T01:10:40.628Z,98524.86
2019-01-05T01:15:49.099Z,98526.12
2019-01-05T01:21:28.488Z,98511.06
2019-01-05T01:27:34.285Z,98505.47
2019-01-05T01:32:42.880Z,98507.60
2019-01-05T01:38:02.565Z,98486.97
2019-01-05T01:43:10.005Z,98500.72
2019-01-05T01:48:20.663Z,98496.84
2019-01-05T01:53:29.253Z,98492.94
2019-01-05T01:59:12.456Z,98495.89
2019-01-05T02:04:21.059Z,98491.21
2019-01-05T02:09:29.697Z,98499.80
2019-01-05T02:14:39.371Z,98492.50
2019-01-05T02:20:00.836Z,98479.64
2019-01-05T02:25:27.488Z,98477.91
2019-01-05T02:30:50.388Z,98475.33
2019-01-05T02:36:19.157Z,98469.33
2019-01-05T02:42:42.364Z,98473.60
2019-01-05T02:51:09.640Z,98459.86
2019-01-05T02:57:02.195Z,98433.19
2019-01-05T03:02:24.742Z,98415.98
2019-01-05T03:08:56.699Z,98399.69
2019-01-05T03:14:19.873Z,98390.63
2019-01-05T03:19:45.190Z,98378.08
2019-01-05T03:27:36.677Z,98357.50
2019-01-05T03:32:56.924Z,98350.20
2019-01-05T03:38:20.993Z,98329.17
2019-01-05T03:48:20.169Z,98319.31
2019-01-05T03:53:41.617Z,98295.84
2019-01-05T03:59:18.005Z,98278.73
2019-01-05T04:05:46.710Z,98260.05
2019-01-05T04:14:16.340Z,98264.40
2019-01-05T04:19:56.364Z,98265.78
2019-01-05T04:26:22.820Z,98261.87
2019-01-05T04:33:47.949Z,98268.75
2019-01-05T04:39:08.105Z,98251.65
2019-01-05T04:45:31.076Z,98245.29
2019-01-05T04:50:49.764Z,98228.22
2019-01-05T04:56:10.211Z,98229.14
2019-01-05T05:02:39.623Z,98208.55
2019-01-05T05:09:08.961Z,98208.07
2019-01-05T05:16:37.340Z,98196.48
2019-01-05T05:24:02.646Z,98193.02
2019-01-05T05:33:29.069Z,98187.87
2019-01-05T05:38:50.316Z,98178.45
2019-01-05T05:46:16.482Z,98175.92
2019-01-05T05:52:09.196Z,98163.02
2019-01-05T05:57:31.884Z,98155.20
2019-01-05T06:03:01.109Z,98149.64
2019-01-05T06:10:21.775Z,98148.72
2019-01-05T06:15:44.083Z,98137.56
2019-01-05T06:23:20.340Z,98129.41
2019-01-05T06:28:44.513Z,98129.80
2019-01-05T06:34:07.673Z,98119.55
2019-01-05T06:39:57.005Z,98120.83
2019-01-05T06:45:21.149Z,98111.83
2019-01-05T06:51:15.779Z,98098.55
2019-01-05T06:56:50.375Z,98109.73
2019-01-05T07:02:17.308Z,98100.23
2019-01-05T07:07:54.236Z,98100.67
2019-01-05T07:15:20.232Z,98099.72
2019-01-05T07:22:48.957Z,98110.83
2019-01-05T07:28:20.433Z,98109.59
2019-01-05T07:34:45.396Z,98108.65
2019-01-05T07:42:12.666Z,98120.28
2019-01-05T07:47:38.015Z,98113.55
2019-01-05T07:55:00.633Z,98102.86
2019-01-05T08:02:34.227Z,98098.20
2019-01-05T08:07:58.658Z,98093.50
2019-01-05T08:13:52.686Z,98106.27
2019-01-05T08:21:16.301Z,98094.19
2019-01-05T08:28:42.153Z,98091.16
2019-01-05T08:34:10.029Z,98095.37
2019-01-05T08:40:39.612Z,98083.34
2019-01-05T08:46:01.132Z,98078.06
2019-01-05T08:51:20.380Z,98081.44
2019-01-05T08:59:14.920Z,98091.33
2019-01-05T09:04:34.364Z,98092.22
2019-01-05T09:10:32.530Z,98084.90
2019-01-05T09:19:53.131Z,98095.19
2019-01-05T09:26:35.059Z,98088.20
2019-01-05T09:32:13.263Z,98078.27
2019-01-05T09:37:39.354Z,98079.04
2019-01-05T09:45:05.824Z,98078.55
2019-01-05T09:52:26.600Z,98074.22
2019-01-05T09:58:09.916Z,98079.75
2019-01-05T10:05:31.898Z,98073.70
2019-01-05T10:10:58.320Z,98063.82
2019-01-05T10:16:20.016Z,98066.73
2019-01-05T10:21:40.328Z,98066.60
2019-01-05T10:29:01.267Z,98070.99
2019-01-05T10:35:36.766Z,98079.54
2019-01-05T10:41:13.185Z,98067.10
2019-01-05T10:46:36.462Z,98069.18
2019-01-05T10:51:56.553Z,98066.26
2019-01-05T10:59:28.131Z,98056.33
2019-01-05T11:07:26.217Z,98049.84
2019-01-05T11:14:48.525Z,98052.78
2019-01-05T11:21:11.269Z,98031.18
2019-01-05T11:26:34.508Z,98033.29
2019-01-05T11:31:57.759Z,98034.52
2019-01-05T11:37:56.819Z,98024.63
2019-01-05T11:43:34.177Z,98036.56
2019-01-05T11:51:00.275Z,98031.45
2019-01-05T11:56:36.927Z,98027.98
2019-01-05T12:02:00.482Z,98029.27
2019-01-05T12:07:24.679Z,98037.84
2019-01-05T12:13:04.040Z,98012.41
2019-01-05T12:20:39.495Z,98002.03
2019-01-05T12:28:01.968Z,97996.84
2019-01-05T12:33:24.259Z,98000.56
2019-01-05T12:38:42.963Z,97997.97
2019-01-05T12:44:03.313Z,97998.83
2019-01-05T12:49:53.646Z,98005.71
2019-01-05T12:55:24.946Z,98014.66
2019-01-05T13:00:52.572Z,98018.47
2019-01-05T13:08:16.917Z,98023.53
2019-01-05T13:13:46.232Z,98029.43
2019-01-05T13:21:13.797Z,98041.42
2019-01-05T13:28:53.485Z,98021.60
2019-01-05T13:35:24.268Z,98019.00
2019-01-05T13:40:53.929Z,98031.02
2019-01-05T13:46:51.627Z,98040.42
2019-01-05T13:54:24.357Z,98049.52
2019-01-05T13:59:33.479Z,98073.08
2019-01-05T14:04:42.455Z,98077.02
2019-01-05T14:09:54.938Z,98078.30
2019-01-05T14:15:02.633Z,98085.20
2019-01-05T14:20:27.709Z,98086.97
2019-01-05T14:25:38.199Z,98094.64
2019-01-05T14:30:46.984Z,98100.62
2019-01-05T14:35:58.429Z,98098.48
2019-01-05T14:43:08.233Z,98098.77
2019-01-05T14:49:18.675Z,98104.80
2019-01-05T14:54:27.241Z,98092.80
2019-01-05T15:01:37.841Z,98103.05
2019-01-05T15:07:51.261Z,98095.73
2019-01-05T15:13:15.689Z,98087.55
2019-01-05T15:18:26.132Z,98082.36
2019-01-05T15:23:34.846Z,98089.20
2019-01-05T15:28:43.507Z,98101.65
2019-01-05T15:33:51.235Z,98114.10
2019-01-05T15:39:00.048Z,98118.36
2019-01-05T15:44:13.575Z,98116.58
2019-01-05T15:49:56.095Z,98126.05
2019-01-05T15:55:04.836Z,98122.12
2019-01-05T16:00:23.336Z,98125.11
2019-01-05T16:05:36.817Z,98125.16
2019-01-05T16:12:46.380Z,98122.52
2019-01-05T16:17:53.957Z,98128.91
2019-01-05T16:23:03.307Z,98130.16
2019-01-05T16:28:11.936Z,98126.73
2019-01-05T16:33:50.377Z,98128.36
2019-01-05T16:38:58.913Z,98132.68
2019-01-05T16:44:10.454Z,98134.78
2019-01-05T16:49:51.076Z,98131.69
2019-01-05T16:55:58.664Z,98132.48
2019-01-05T17:01:07.523Z,98136.27
2019-01-05T17:06:18.010Z,98126.28
2019-01-05T17:13:28.740Z,98127.95
2019-01-05T17:18:39.299Z,98131.84
2019-01-05T17:23:51.821Z,98137.09
2019-01-05T17:29:00.740Z,98143.48
2019-01-05T17:34:09.240Z,98145.96
2019-01-05T17:40:18.092Z,98145.05
2019-01-05T17:45:30.803Z,98160.05
2019-01-05T17:50:39.424Z,98158.61
2019-01-05T17:55:48.337Z,98170.99
2019-01-05T18:03:01.972Z,98161.53
2019-01-05T18:08:10.660Z,98161.89
2019-01-05T18:13:19.368Z,98170.02
2019-01-05T18:18:28.093Z,98166.54
2019-01-05T18:23:43.716Z,98177.99
2019-01-05T18:29:22.461Z,98183.98
2019-01-05T18:34:31.276Z,98183.10
2019-01-05T18:39:40.025Z,98183.50
2019-01-05T18:45:19.472Z,98183.03
2019-01-05T18:50:29.000Z,98167.51
2019-01-05T18:55:37.574Z,98166.69
2019-01-05T19:02:51.429Z,98169.34
2019-01-05T19:07:59.245Z,98163.63
2019-01-05T19:13:08.791Z,98166.66
2019-01-05T19:19:16.194Z,98172.61
2019-01-05T19:24:25.673Z,98169.10
2019-01-05T19:29:34.352Z,98174.73
2019-01-05T19:36:45.127Z,98169.08
2019-01-05T19:41:52.865Z,98169.51
2019-01-05T19:47:01.417Z,98168.06
2019-01-05T19:52:09.371Z,98165.06
2019-01-05T19:57:18.052Z,98171.91
2019-01-05T20:02:26.749Z,98160.26
2019-01-05T20:09:39.443Z,98171.45
2019-01-05T20:16:52.205Z,98170.59
2019-01-05T20:24:03.778Z,98171.73
2019-01-05T20:29:16.295Z,98166.91
2019-01-05T20:34:27.782Z,98168.25
2019-01-05T20:41:37.509Z,98170.39
2019-01-05T20:46:48.041Z,98176.28
2019-01-05T20:54:02.578Z,98171.11
2019-01-05T20:59:16.231Z,98188.78
2019-01-05T21:04:24.700Z,98192.94
2019-01-05T21:09:33.400Z,98193.28
2019-01-05T21:14:42.057Z,98192.42
2019-01-05T21:19:50.788Z,98194.48
2019-01-05T21:27:05.271Z,98190.20
2019-01-05T21:34:17.166Z,98190.75
2019-01-05T21:39:30.560Z,98189.88
2019-01-05T21:44:53.057Z,98183.93
2019-01-05T21:50:01.610Z,98186.46
2019-01-05T21:55:24.128Z,98187.39
2019-01-05T22:00:32.952Z,98186.06
2019-01-05T22:05:45.464Z,98186.52
2019-01-05T22:11:10.954Z,98179.97
2019-01-05T22:16:19.823Z,98183.83
2019-01-05T22:21:32.132Z,98179.52
2019-01-05T22:26:57.587Z,98184.28
2019-01-05T22:32:06.108Z,98189.45
2019-01-05T22:37:14.796Z,98191.06
2019-01-05T22:43:25.263Z,98196.20
2019-01-05T22:48:33.824Z,98204.20
2019-01-05T22:53:42.132Z,98208.09
2019-01-05T22:59:04.475Z,98211.80
2019-01-05T23:04:13.165Z,98213.86
2019-01-05T23:09:21.717Z,98213.46
2019-01-05T23:16:33.357Z,98215.16
2019-01-05T23:21:41.936Z,98216.24
2019-01-05T23:26:50.500Z,98221.47
2019-01-05T23:32:04.087Z,98215.10
2019-01-05T23:37:12.671Z,98220.11
2019-01-05T23:42:28.204Z,98194.22
2019-01-05T23:47:36.703Z,98205.64
2019-01-05T23:52:51.094Z,98195.02
2019-01-05T23:58:23.468Z,98205.14
